sensor_id;sensor_type;location;lat;lon;timestamp;pressure;altitude;pressure_sealevel;temperature;humidity
68889;BME280;55930;47.412;8.790;2023-07-30T00:00:01;94416.09;;;16.32;100.00
68889;BME280;55930;47.412;8.790;2023-07-30T00:03:22;94425.47;;;16.44;100.00
68889;BME280;55930;47.412;8.790;2023-07-30T00:06:43;94424.72;;;16.50;100.00
68889;BME280;55930;47.412;8.790;2023-07-30T00:10:05;94427.63;;;16.52;100.00
68889;BME280;55930;47.412;8.790;2023-07-30T00:13:25;94430.28;;;16.52;100.00
68889;BME280;55930;47.412;8.790;2023-07-30T00:16:46;94426.44;;;16.47;100.00
68889;BME280;55930;47.412;8.790;2023-07-30T00:20:07;94425.63;;;16.58;100.00
68889;BME280;55930;47.412;8.790;2023-07-30T00:23:28;94428.53;;;16.60;100.00
68889;BME280;55930;47.412;8.790;2023-07-30T00:26:48;94436.28;;;16.63;100.00
68889;BME280;55930;47.412;8.790;2023-07-30T00:30:08;94436.75;;;16.67;100.00
68889;BME280;55930;47.412;8.790;2023-07-30T00:33:29;94447.47;;;16.67;100.00
68889;BME280;55930;47.412;8.790;2023-07-30T00:36:49;94449.44;;;16.67;100.00
68889;BME280;55930;47.412;8.790;2023-07-30T00:40:09;94445.78;;;16.64;100.00
68889;BME280;55930;47.412;8.790;2023-07-30T00:43:30;94444.75;;;16.37;100.00
68889;BME280;55930;47.412;8.790;2023-07-30T00:46:50;94448.66;;;16.36;100.00
68889;BME280;55930;47.412;8.790;2023-07-30T00:50:10;94450.09;;;16.43;100.00
68889;BME280;55930;47.412;8.790;2023-07-30T00:53:32;94446.63;;;16.48;100.00
68889;BME280;55930;47.412;8.790;2023-07-30T00:56:55;94446.19;;;16.44;100.00
68889;BME280;55930;47.412;8.790;2023-07-30T01:00:16;94453.94;;;16.48;100.00
68889;BME280;55930;47.412;8.790;2023-07-30T01:03:36;94453.69;;;16.45;100.00
68889;BME280;55930;47.412;8.790;2023-07-30T01:06:56;94451.72;;;16.52;100.00
68889;BME280;55930;47.412;8.790;2023-07-30T01:10:17;94457.53;;;16.56;100.00
68889;BME280;55930;47.412;8.790;2023-07-30T01:13:37;94454.13;;;16.55;100.00
68889;BME280;55930;47.412;8.790;2023-07-30T01:16:58;94456.53;;;16.59;100.00
68889;BME280;55930;47.412;8.790;2023-07-30T01:20:19;94462.16;;;16.55;100.00
68889;BME280;55930;47.412;8.790;2023-07-30T01:23:41;94459.72;;;16.57;100.00
68889;BME280;55930;47.412;8.790;2023-07-30T01:27:02;94469.16;;;16.64;100.00
68889;BME280;55930;47.412;8.790;2023-07-30T01:30:25;94472.94;;;16.79;100.00
68889;BME280;55930;47.412;8.790;2023-07-30T01:33:48;94466.78;;;16.84;100.00
68889;BME280;55930;47.412;8.790;2023-07-30T01:37:11;94460.72;;;16.84;100.00
68889;BME280;55930;47.412;8.790;2023-07-30T01:40:32;94450.53;;;16.77;100.00
68889;BME280;55930;47.412;8.790;2023-07-30T01:43:53;94459.75;;;16.81;100.00
68889;BME280;55930;47.412;8.790;2023-07-30T01:47:13;94449.53;;;16.80;100.00
68889;BME280;55930;47.412;8.790;2023-07-30T01:50:34;94456.19;;;16.73;100.00
68889;BME280;55930;47.412;8.790;2023-07-30T01:53:54;94459.13;;;16.70;100.00
68889;BME280;55930;47.412;8.790;2023-07-30T01:57:14;94450.53;;;16.77;100.00
68889;BME280;55930;47.412;8.790;2023-07-30T02:00:35;94450.81;;;16.73;100.00
68889;BME280;55930;47.412;8.790;2023-07-30T02:03:55;94439.56;;;16.80;100.00
68889;BME280;55930;47.412;8.790;2023-07-30T02:07:15;94438.81;;;16.80;100.00
68889;BME280;55930;47.412;8.790;2023-07-30T02:10:36;94444.19;;;16.80;100.00
68889;BME280;55930;47.412;8.790;2023-07-30T02:13:56;94437.13;;;16.77;100.00
68889;BME280;55930;47.412;8.790;2023-07-30T02:17:16;94439.66;;;16.69;100.00
68889;BME280;55930;47.412;8.790;2023-07-30T02:20:36;94429.41;;;16.73;100.00
68889;BME280;55930;47.412;8.790;2023-07-30T02:23:57;94424.09;;;16.68;100.00
68889;BME280;55930;47.412;8.790;2023-07-30T02:27:19;94427.03;;;16.64;100.00
68889;BME280;55930;47.412;8.790;2023-07-30T02:30:40;94430.78;;;16.50;100.00
68889;BME280;55930;47.412;8.790;2023-07-30T02:34:00;94434.41;;;16.53;100.00
68889;BME280;55930;47.412;8.790;2023-07-30T02:37:20;94418.56;;;16.55;100.00
68889;BME280;55930;47.412;8.790;2023-07-30T02:40:40;94429.34;;;16.49;100.00
68889;BME280;55930;47.412;8.790;2023-07-30T02:44:01;94430.56;;;16.48;100.00
68889;BME280;55930;47.412;8.790;2023-07-30T02:47:21;94423.06;;;16.41;100.00
68889;BME280;55930;47.412;8.790;2023-07-30T02:50:41;94436.69;;;16.43;100.00
68889;BME280;55930;47.412;8.790;2023-07-30T02:54:05;94448.22;;;16.32;100.00
68889;BME280;55930;47.412;8.790;2023-07-30T02:57:25;94433.13;;;16.29;100.00
68889;BME280;55930;47.412;8.790;2023-07-30T03:00:46;94455.50;;;16.32;100.00
68889;BME280;55930;47.412;8.790;2023-07-30T03:04:11;94450.94;;;16.27;100.00
68889;BME280;55930;47.412;8.790;2023-07-30T03:07:31;94458.44;;;16.28;100.00
68889;BME280;55930;47.412;8.790;2023-07-30T03:10:51;94464.03;;;16.30;100.00
68889;BME280;55930;47.412;8.790;2023-07-30T03:14:14;94457.47;;;16.31;100.00
68889;BME280;55930;47.412;8.790;2023-07-30T03:17:34;94456.44;;;16.40;100.00
68889;BME280;55930;47.412;8.790;2023-07-30T03:20:58;94449.63;;;16.39;100.00
68889;BME280;55930;47.412;8.790;2023-07-30T03:24:19;94455.69;;;16.39;100.00
68889;BME280;55930;47.412;8.790;2023-07-30T03:27:39;94452.78;;;16.37;100.00
68889;BME280;55930;47.412;8.790;2023-07-30T03:31:00;94457.50;;;16.26;100.00
68889;BME280;55930;47.412;8.790;2023-07-30T03:34:20;94453.63;;;16.27;100.00
68889;BME280;55930;47.412;8.790;2023-07-30T03:37:40;94452.72;;;16.13;100.00
68889;BME280;55930;47.412;8.790;2023-07-30T03:41:00;94458.69;;;15.95;100.00
68889;BME280;55930;47.412;8.790;2023-07-30T03:44:21;94459.13;;;15.99;100.00
68889;BME280;55930;47.412;8.790;2023-07-30T03:47:41;94460.94;;;16.21;100.00
68889;BME280;55930;47.412;8.790;2023-07-30T03:51:01;94461.41;;;16.25;100.00
68889;BME280;55930;47.412;8.790;2023-07-30T03:54:22;94461.44;;;16.19;100.00
68889;BME280;55930;47.412;8.790;2023-07-30T03:57:43;94457.09;;;16.16;100.00
68889;BME280;55930;47.412;8.790;2023-07-30T04:01:03;94463.94;;;16.06;100.00
68889;BME280;55930;47.412;8.790;2023-07-30T04:04:23;94466.41;;;16.04;100.00
68889;BME280;55930;47.412;8.790;2023-07-30T04:07:44;94466.41;;;16.04;100.00
68889;BME280;55930;47.412;8.790;2023-07-30T04:11:04;94464.00;;;16.00;100.00
68889;BME280;55930;47.412;8.790;2023-07-30T04:14:24;94463.16;;;16.17;100.00
68889;BME280;55930;47.412;8.790;2023-07-30T04:17:45;94476.31;;;16.15;100.00
68889;BME280;55930;47.412;8.790;2023-07-30T04:21:05;94470.41;;;16.27;100.00
68889;BME280;55930;47.412;8.790;2023-07-30T04:24:25;94479.06;;;16.39;100.00
68889;BME280;55930;47.412;8.790;2023-07-30T04:27:46;94484.16;;;16.42;100.00
68889;BME280;55930;47.412;8.790;2023-07-30T04:31:06;94478.94;;;16.56;100.00
68889;BME280;55930;47.412;8.790;2023-07-30T04:34:27;94491.13;;;16.57;100.00
68889;BME280;55930;47.412;8.790;2023-07-30T04:37:47;94488.16;;;16.66;100.00
68889;BME280;55930;47.412;8.790;2023-07-30T04:41:07;94488.28;;;16.79;100.00
68889;BME280;55930;47.412;8.790;2023-07-30T04:44:28;94492.03;;;16.95;100.00
68889;BME280;55930;47.412;8.790;2023-07-30T04:47:48;94486.63;;;17.00;100.00
68889;BME280;55930;47.412;8.790;2023-07-30T04:51:08;94491.63;;;17.15;100.00
68889;BME280;55930;47.412;8.790;2023-07-30T04:54:28;94492.66;;;17.06;100.00
68889;BME280;55930;47.412;8.790;2023-07-30T04:57:49;94496.56;;;17.05;100.00
68889;BME280;55930;47.412;8.790;2023-07-30T05:01:09;94499.91;;;17.11;100.00
68889;BME280;55930;47.412;8.790;2023-07-30T05:04:29;94503.16;;;17.29;100.00
68889;BME280;55930;47.412;8.790;2023-07-30T05:07:50;94501.31;;;17.42;100.00
68889;BME280;55930;47.412;8.790;2023-07-30T05:11:10;94494.38;;;17.52;100.00
68889;BME280;55930;47.412;8.790;2023-07-30T05:14:30;94498.00;;;17.55;100.00
68889;BME280;55930;47.412;8.790;2023-07-30T05:17:50;94512.84;;;17.56;100.00
68889;BME280;55930;47.412;8.790;2023-07-30T05:21:11;94516.63;;;17.72;100.00
68889;BME280;55930;47.412;8.790;2023-07-30T05:24:31;94522.09;;;17.60;100.00
68889;BME280;55930;47.412;8.790;2023-07-30T05:27:51;94526.50;;;17.82;100.00
68889;BME280;55930;47.412;8.790;2023-07-30T05:31:11;94522.28;;;18.06;100.00
68889;BME280;55930;47.412;8.790;2023-07-30T05:34:32;94513.88;;;18.33;100.00
68889;BME280;55930;47.412;8.790;2023-07-30T05:37:52;94519.16;;;18.39;100.00
68889;BME280;55930;47.412;8.790;2023-07-30T05:41:12;94527.75;;;18.19;100.00
68889;BME280;55930;47.412;8.790;2023-07-30T05:44:35;94522.09;;;18.04;100.00
68889;BME280;55930;47.412;8.790;2023-07-30T05:47:56;94525.47;;;18.04;100.00
68889;BME280;55930;47.412;8.790;2023-07-30T05:51:16;94529.56;;;18.11;100.00
68889;BME280;55930;47.412;8.790;2023-07-30T05:54:36;94538.25;;;17.79;100.00
68889;BME280;55930;47.412;8.790;2023-07-30T05:57:57;94537.53;;;17.79;100.00
68889;BME280;55930;47.412;8.790;2023-07-30T06:01:18;94532.16;;;17.79;100.00
68889;BME280;55930;47.412;8.790;2023-07-30T06:04:39;94529.69;;;17.81;100.00
68889;BME280;55930;47.412;8.790;2023-07-30T06:08:00;94532.50;;;17.88;100.00
68889;BME280;55930;47.412;8.790;2023-07-30T06:11:22;94533.91;;;18.14;100.00
68889;BME280;55930;47.412;8.790;2023-07-30T06:14:43;94532.97;;;18.30;100.00
68889;BME280;55930;47.412;8.790;2023-07-30T06:18:03;94528.53;;;18.51;100.00
68889;BME280;55930;47.412;8.790;2023-07-30T06:21:23;94518.34;;;19.08;100.00
68889;BME280;55930;47.412;8.790;2023-07-30T06:24:44;94527.25;;;19.03;100.00
68889;BME280;55930;47.412;8.790;2023-07-30T06:28:04;94523.50;;;19.51;100.00
68889;BME280;55930;47.412;8.790;2023-07-30T06:31:25;94533.59;;;20.11;100.00
68889;BME280;55930;47.412;8.790;2023-07-30T06:34:45;94539.84;;;20.40;100.00
68889;BME280;55930;47.412;8.790;2023-07-30T06:38:06;94550.19;;;20.02;100.00
68889;BME280;55930;47.412;8.790;2023-07-30T06:41:26;94543.47;;;19.95;100.00
68889;BME280;55930;47.412;8.790;2023-07-30T06:44:46;94554.31;;;20.03;100.00
68889;BME280;55930;47.412;8.790;2023-07-30T06:48:06;94566.41;;;21.11;100.00
68889;BME280;55930;47.412;8.790;2023-07-30T06:51:27;94567.72;;;20.29;100.00
68889;BME280;55930;47.412;8.790;2023-07-30T06:54:47;94575.78;;;20.76;100.00
68889;BME280;55930;47.412;8.790;2023-07-30T06:58:07;94574.59;;;20.17;100.00
68889;BME280;55930;47.412;8.790;2023-07-30T07:01:28;94578.38;;;20.48;100.00
68889;BME280;55930;47.412;8.790;2023-07-30T07:04:50;94577.25;;;20.77;100.00
68889;BME280;55930;47.412;8.790;2023-07-30T07:08:11;94581.25;;;20.63;100.00
68889;BME280;55930;47.412;8.790;2023-07-30T07:11:31;94573.50;;;20.80;100.00
68889;BME280;55930;47.412;8.790;2023-07-30T07:14:54;94574.06;;;21.69;100.00
68889;BME280;55930;47.412;8.790;2023-07-30T07:18:18;94573.03;;;21.80;100.00
68889;BME280;55930;47.412;8.790;2023-07-30T07:21:38;94567.47;;;22.14;100.00
68889;BME280;55930;47.412;8.790;2023-07-30T07:24:58;94586.88;;;22.05;100.00
68889;BME280;55930;47.412;8.790;2023-07-30T07:28:19;94587.06;;;22.07;100.00
68889;BME280;55930;47.412;8.790;2023-07-30T07:31:39;94571.94;;;22.63;100.00
68889;BME280;55930;47.412;8.790;2023-07-30T07:34:59;94583.38;;;22.84;100.00
68889;BME280;55930;47.412;8.790;2023-07-30T07:38:19;94582.94;;;21.77;100.00
68889;BME280;55930;47.412;8.790;2023-07-30T07:41:40;94587.34;;;22.32;100.00
68889;BME280;55930;47.412;8.790;2023-07-30T07:45:03;94585.81;;;21.80;100.00
68889;BME280;55930;47.412;8.790;2023-07-30T07:48:25;94588.03;;;21.60;100.00
68889;BME280;55930;47.412;8.790;2023-07-30T07:51:48;94583.00;;;21.93;100.00
68889;BME280;55930;47.412;8.790;2023-07-30T07:55:08;94576.50;;;22.75;100.00
68889;BME280;55930;47.412;8.790;2023-07-30T07:58:33;94582.59;;;22.09;100.00
68889;BME280;55930;47.412;8.790;2023-07-30T08:01:53;94572.09;;;22.06;100.00
68889;BME280;55930;47.412;8.790;2023-07-30T08:05:14;94576.53;;;21.96;100.00
68889;BME280;55930;47.412;8.790;2023-07-30T08:08:34;94569.88;;;23.68;100.00
68889;BME280;55930;47.412;8.790;2023-07-30T08:11:54;94560.34;;;23.21;100.00
68889;BME280;55930;47.412;8.790;2023-07-30T08:15:15;94576.63;;;22.11;100.00
68889;BME280;55930;47.412;8.790;2023-07-30T08:18:35;94583.00;;;21.93;100.00
68889;BME280;55930;47.412;8.790;2023-07-30T08:21:55;94582.84;;;23.92;100.00
68889;BME280;55930;47.412;8.790;2023-07-30T08:25:16;94572.59;;;23.45;100.00
68889;BME280;55930;47.412;8.790;2023-07-30T08:28:37;94573.44;;;26.49;100.00
68889;BME280;55930;47.412;8.790;2023-07-30T08:31:57;94564.09;;;22.29;100.00
68889;BME280;55930;47.412;8.790;2023-07-30T08:35:17;94570.19;;;25.57;100.00
68889;BME280;55930;47.412;8.790;2023-07-30T08:38:38;94561.94;;;23.32;100.00
68889;BME280;55930;47.412;8.790;2023-07-30T08:41:58;94571.84;;;25.77;97.66
68889;BME280;55930;47.412;8.790;2023-07-30T08:45:18;94576.00;;;25.78;91.96
68889;BME280;55930;47.412;8.790;2023-07-30T08:48:39;94569.25;;;24.55;100.00
68889;BME280;55930;47.412;8.790;2023-07-30T08:51:59;94569.38;;;24.32;100.00
68889;BME280;55930;47.412;8.790;2023-07-30T08:55:24;94575.19;;;22.69;100.00
68889;BME280;55930;47.412;8.790;2023-07-30T08:58:46;94574.78;;;21.70;100.00
68889;BME280;55930;47.412;8.790;2023-07-30T09:02:08;94570.81;;;21.43;100.00
68889;BME280;55930;47.412;8.790;2023-07-30T09:05:35;94569.03;;;21.04;100.00
68889;BME280;55930;47.412;8.790;2023-07-30T09:08:55;94571.94;;;21.06;100.00
68889;BME280;55930;47.412;8.790;2023-07-30T09:12:15;94574.81;;;21.49;100.00
68889;BME280;55930;47.412;8.790;2023-07-30T09:15:36;94573.38;;;22.12;100.00
68889;BME280;55930;47.412;8.790;2023-07-30T09:19:00;94567.09;;;21.82;100.00
68889;BME280;55930;47.412;8.790;2023-07-30T09:22:30;94575.72;;;21.80;100.00
68889;BME280;55930;47.412;8.790;2023-07-30T09:25:53;94581.22;;;21.67;100.00
68889;BME280;55930;47.412;8.790;2023-07-30T09:29:17;94581.88;;;21.11;100.00
68889;BME280;55930;47.412;8.790;2023-07-30T09:32:38;94580.50;;;20.96;100.00
68889;BME280;55930;47.412;8.790;2023-07-30T09:36:00;94587.72;;;21.01;100.00
68889;BME280;55930;47.412;8.790;2023-07-30T09:39:22;94590.28;;;20.86;100.00
68889;BME280;55930;47.412;8.790;2023-07-30T09:42:44;94588.25;;;20.79;100.00
68889;BME280;55930;47.412;8.790;2023-07-30T09:46:05;94600.41;;;20.93;100.00
68889;BME280;55930;47.412;8.790;2023-07-30T09:49:26;94604.94;;;20.44;100.00
68889;BME280;55930;47.412;8.790;2023-07-30T09:52:46;94625.06;;;19.90;100.00
68889;BME280;55930;47.412;8.790;2023-07-30T09:56:06;94623.41;;;19.74;100.00
68889;BME280;55930;47.412;8.790;2023-07-30T09:59:29;94615.22;;;19.79;100.00
68889;BME280;55930;47.412;8.790;2023-07-30T10:02:50;94634.38;;;19.63;100.00
68889;BME280;55930;47.412;8.790;2023-07-30T10:06:12;94636.47;;;19.38;100.00
68889;BME280;55930;47.412;8.790;2023-07-30T10:09:35;94648.00;;;20.70;100.00
68889;BME280;55930;47.412;8.790;2023-07-30T10:12:59;94640.91;;;25.74;100.00
68889;BME280;55930;47.412;8.790;2023-07-30T10:16:24;94631.41;;;25.58;100.00
68889;BME280;55930;47.412;8.790;2023-07-30T10:19:48;94636.13;;;23.28;100.00
68889;BME280;55930;47.412;8.790;2023-07-30T10:23:09;94634.16;;;24.60;100.00
68889;BME280;55930;47.412;8.790;2023-07-30T10:26:30;94633.81;;;23.86;100.00
68889;BME280;55930;47.412;8.790;2023-07-30T10:30:08;94626.22;;;23.69;100.00
68889;BME280;55930;47.412;8.790;2023-07-30T10:33:45;94630.63;;;21.75;100.00
68889;BME280;55930;47.412;8.790;2023-07-30T10:37:05;94633.16;;;21.31;100.00
68889;BME280;55930;47.412;8.790;2023-07-30T10:40:27;94630.50;;;22.96;100.00
68889;BME280;55930;47.412;8.790;2023-07-30T10:43:48;94628.25;;;24.87;94.37
68889;BME280;55930;47.412;8.790;2023-07-30T10:47:11;94625.97;;;25.33;93.56
68889;BME280;55930;47.412;8.790;2023-07-30T10:50:32;94635.34;;;26.06;91.33
68889;BME280;55930;47.412;8.790;2023-07-30T10:53:52;94636.44;;;24.16;94.30
68889;BME280;55930;47.412;8.790;2023-07-30T10:57:14;94641.75;;;23.31;100.00
68889;BME280;55930;47.412;8.790;2023-07-30T11:00:36;94660.78;;;21.87;100.00
68889;BME280;55930;47.412;8.790;2023-07-30T11:03:57;94646.94;;;23.06;100.00
68889;BME280;55930;47.412;8.790;2023-07-30T11:07:17;94658.72;;;26.61;83.20
68889;BME280;55930;47.412;8.790;2023-07-30T11:10:42;94640.84;;;25.57;92.41
68889;BME280;55930;47.412;8.790;2023-07-30T11:14:05;94644.09;;;25.80;87.92
68889;BME280;55930;47.412;8.790;2023-07-30T11:17:27;94648.81;;;27.27;82.64
68889;BME280;55930;47.412;8.790;2023-07-30T11:20:47;94644.50;;;29.34;58.02
68889;BME280;55930;47.412;8.790;2023-07-30T11:24:10;94643.94;;;29.45;56.04
68889;BME280;55930;47.412;8.790;2023-07-30T11:27:30;94651.38;;;25.52;66.75
68889;BME280;55930;47.412;8.790;2023-07-30T11:34:24;94644.19;;;26.49;61.91
68889;BME280;55930;47.412;8.790;2023-07-30T11:37:45;94635.59;;;28.64;56.85
68889;BME280;55930;47.412;8.790;2023-07-30T11:41:06;94633.13;;;30.74;51.18
68889;BME280;55930;47.412;8.790;2023-07-30T11:44:30;94629.03;;;30.31;48.31
68889;BME280;55930;47.412;8.790;2023-07-30T11:47:52;94644.28;;;32.40;49.14
68889;BME280;55930;47.412;8.790;2023-07-30T11:51:26;94630.63;;;29.82;53.38
68889;BME280;55930;47.412;8.790;2023-07-30T11:54:46;94640.31;;;28.15;55.11
68889;BME280;55930;47.412;8.790;2023-07-30T11:58:07;94633.41;;;30.03;49.89
68889;BME280;55930;47.412;8.790;2023-07-30T12:01:29;94642.47;;;26.71;57.85
68889;BME280;55930;47.412;8.790;2023-07-30T12:04:50;94638.22;;;25.91;63.48
68889;BME280;55930;47.412;8.790;2023-07-30T12:08:13;94635.06;;;26.37;58.98
68889;BME280;55930;47.412;8.790;2023-07-30T12:11:43;94625.94;;;27.49;55.31
68889;BME280;55930;47.412;8.790;2023-07-30T12:15:09;94621.38;;;28.36;50.29
68889;BME280;55930;47.412;8.790;2023-07-30T12:18:30;94619.25;;;29.54;49.13
68889;BME280;55930;47.412;8.790;2023-07-30T12:21:50;94623.34;;;28.74;50.86
68889;BME280;55930;47.412;8.790;2023-07-30T12:25:10;94625.16;;;26.76;54.54
68889;BME280;55930;47.412;8.790;2023-07-30T12:28:31;94633.09;;;25.95;57.84
68889;BME280;55930;47.412;8.790;2023-07-30T12:31:52;94629.84;;;26.31;56.78
68889;BME280;55930;47.412;8.790;2023-07-30T12:35:16;94624.78;;;25.93;55.86
68889;BME280;55930;47.412;8.790;2023-07-30T12:38:36;94638.31;;;28.83;51.13
68889;BME280;55930;47.412;8.790;2023-07-30T12:41:56;94617.13;;;27.22;52.56
68889;BME280;55930;47.412;8.790;2023-07-30T12:45:16;94631.31;;;26.32;54.79
68889;BME280;55930;47.412;8.790;2023-07-30T12:48:37;94629.91;;;25.39;55.33
68889;BME280;55930;47.412;8.790;2023-07-30T12:51:57;94635.56;;;27.14;51.04
68889;BME280;55930;47.412;8.790;2023-07-30T12:55:17;94614.94;;;29.82;46.60
68889;BME280;55930;47.412;8.790;2023-07-30T12:58:37;94611.44;;;31.46;41.83
68889;BME280;55930;47.412;8.790;2023-07-30T13:01:59;94606.38;;;29.45;47.86
68889;BME280;55930;47.412;8.790;2023-07-30T13:05:22;94605.19;;;32.04;43.12
68889;BME280;55930;47.412;8.790;2023-07-30T13:08:42;94599.13;;;30.02;42.25
68889;BME280;55930;47.412;8.790;2023-07-30T13:12:03;94599.19;;;29.92;43.25
68889;BME280;55930;47.412;8.790;2023-07-30T13:15:23;94595.81;;;30.58;44.83
68889;BME280;55930;47.412;8.790;2023-07-30T13:18:43;94595.31;;;29.86;43.63
68889;BME280;55930;47.412;8.790;2023-07-30T13:22:06;94588.78;;;31.81;40.82
68889;BME280;55930;47.412;8.790;2023-07-30T13:25:29;94583.22;;;32.92;37.51
68889;BME280;55930;47.412;8.790;2023-07-30T13:28:49;94586.81;;;32.07;40.91
68889;BME280;55930;47.412;8.790;2023-07-30T13:32:09;94586.00;;;28.67;42.14
68889;BME280;55930;47.412;8.790;2023-07-30T13:35:30;94597.44;;;30.84;38.41
68889;BME280;55930;47.412;8.790;2023-07-30T13:38:52;94596.19;;;29.26;42.29
68889;BME280;55930;47.412;8.790;2023-07-30T13:42:12;94601.25;;;32.07;40.61
68889;BME280;55930;47.412;8.790;2023-07-30T13:45:33;94601.97;;;30.25;40.77
68889;BME280;55930;47.412;8.790;2023-07-30T13:48:53;94606.88;;;31.04;39.15
68889;BME280;55930;47.412;8.790;2023-07-30T13:52:14;94601.25;;;30.91;37.53
68889;BME280;55930;47.412;8.790;2023-07-30T13:55:34;94590.78;;;30.21;39.23
68889;BME280;55930;47.412;8.790;2023-07-30T13:58:54;94606.81;;;29.42;41.42
68889;BME280;55930;47.412;8.790;2023-07-30T14:02:15;94598.72;;;29.75;40.02
68889;BME280;55930;47.412;8.790;2023-07-30T14:05:35;94600.03;;;29.43;39.12
68889;BME280;55930;47.412;8.790;2023-07-30T14:08:55;94596.63;;;30.27;41.09
68889;BME280;55930;47.412;8.790;2023-07-30T14:12:15;94602.81;;;30.28;42.40
68889;BME280;55930;47.412;8.790;2023-07-30T14:15:36;94600.25;;;30.74;40.57
68889;BME280;55930;47.412;8.790;2023-07-30T14:18:56;94604.06;;;29.01;39.65
68889;BME280;55930;47.412;8.790;2023-07-30T14:22:16;94597.34;;;30.28;37.48
68889;BME280;55930;47.412;8.790;2023-07-30T14:25:37;94604.78;;;31.61;38.48
68889;BME280;55930;47.412;8.790;2023-07-30T14:28:57;94613.19;;;30.95;37.58
68889;BME280;55930;47.412;8.790;2023-07-30T14:32:19;94611.22;;;29.47;37.98
68889;BME280;55930;47.412;8.790;2023-07-30T14:35:40;94615.03;;;31.61;35.38
68889;BME280;55930;47.412;8.790;2023-07-30T14:39:00;94617.28;;;30.19;35.65
68889;BME280;55930;47.412;8.790;2023-07-30T14:42:20;94619.03;;;28.90;37.21
68889;BME280;55930;47.412;8.790;2023-07-30T14:45:41;94623.81;;;29.92;38.77
68889;BME280;55930;47.412;8.790;2023-07-30T14:49:01;94631.38;;;31.70;33.89
68889;BME280;55930;47.412;8.790;2023-07-30T14:52:22;94631.03;;;30.85;35.04
68889;BME280;55930;47.412;8.790;2023-07-30T14:55:42;94626.31;;;30.42;35.19
68889;BME280;55930;47.412;8.790;2023-07-30T14:59:02;94626.97;;;29.98;36.65
68889;BME280;55930;47.412;8.790;2023-07-30T15:02:23;94635.75;;;29.97;34.17
68889;BME280;55930;47.412;8.790;2023-07-30T15:05:43;94630.00;;;29.93;37.38
68889;BME280;55930;47.412;8.790;2023-07-30T15:09:03;94628.69;;;29.42;35.93
68889;BME280;55930;47.412;8.790;2023-07-30T15:12:23;94628.09;;;27.97;38.63
68889;BME280;55930;47.412;8.790;2023-07-30T15:15:44;94629.00;;;28.28;38.04
68889;BME280;55930;47.412;8.790;2023-07-30T15:19:04;94633.72;;;28.18;38.94
68889;BME280;55930;47.412;8.790;2023-07-30T15:22:27;94633.84;;;26.91;39.26
68889;BME280;55930;47.412;8.790;2023-07-30T15:25:49;94635.97;;;26.66;41.07
68889;BME280;55930;47.412;8.790;2023-07-30T15:29:11;94641.28;;;26.64;40.37
68889;BME280;55930;47.412;8.790;2023-07-30T15:32:31;94640.88;;;28.13;39.01
68889;BME280;55930;47.412;8.790;2023-07-30T15:35:53;94646.50;;;27.23;41.10
68889;BME280;55930;47.412;8.790;2023-07-30T15:39:13;94645.31;;;27.99;40.01
68889;BME280;55930;47.412;8.790;2023-07-30T15:42:33;94644.03;;;27.18;38.72
68889;BME280;55930;47.412;8.790;2023-07-30T15:45:54;94641.19;;;26.54;40.60
68889;BME280;55930;47.412;8.790;2023-07-30T15:49:21;94652.03;;;25.36;43.26
68889;BME280;55930;47.412;8.790;2023-07-30T15:52:41;94646.09;;;26.39;43.26
68889;BME280;55930;47.412;8.790;2023-07-30T15:56:02;94644.00;;;27.91;40.45
68889;BME280;55930;47.412;8.790;2023-07-30T15:59:23;94642.53;;;27.70;41.78
68889;BME280;55930;47.412;8.790;2023-07-30T16:02:45;94641.84;;;27.43;40.84
68889;BME280;55930;47.412;8.790;2023-07-30T16:06:06;94638.66;;;25.30;44.75
68889;BME280;55930;47.412;8.790;2023-07-30T16:09:26;94639.09;;;24.47;45.72
68889;BME280;55930;47.412;8.790;2023-07-30T16:12:47;94645.88;;;24.00;46.92
68889;BME280;55930;47.412;8.790;2023-07-30T16:16:11;94638.66;;;23.42;48.32
68889;BME280;55930;47.412;8.790;2023-07-30T16:19:31;94642.09;;;23.73;48.47
68889;BME280;55930;47.412;8.790;2023-07-30T16:22:51;94645.53;;;23.88;49.31
68889;BME280;55930;47.412;8.790;2023-07-30T16:26:14;94650.78;;;23.94;49.36
68889;BME280;55930;47.412;8.790;2023-07-30T16:29:34;94650.44;;;23.59;49.26
68889;BME280;55930;47.412;8.790;2023-07-30T16:32:55;94652.19;;;23.19;50.01
68889;BME280;55930;47.412;8.790;2023-07-30T16:36:15;94649.81;;;23.15;50.15
68889;BME280;55930;47.412;8.790;2023-07-30T16:39:35;94650.22;;;23.42;50.80
68889;BME280;55930;47.412;8.790;2023-07-30T16:42:56;94659.75;;;23.05;51.02
68889;BME280;55930;47.412;8.790;2023-07-30T16:46:18;94658.00;;;23.46;51.75
68889;BME280;55930;47.412;8.790;2023-07-30T16:49:39;94663.66;;;22.81;52.63
68889;BME280;55930;47.412;8.790;2023-07-30T16:52:59;94667.03;;;22.38;52.11
68889;BME280;55930;47.412;8.790;2023-07-30T16:56:19;94674.16;;;22.57;53.40
68889;BME280;55930;47.412;8.790;2023-07-30T16:59:40;94672.56;;;22.25;53.43
68889;BME280;55930;47.412;8.790;2023-07-30T17:03:00;94667.66;;;22.16;53.96
68889;BME280;55930;47.412;8.790;2023-07-30T17:06:23;94667.34;;;22.27;54.66
68889;BME280;55930;47.412;8.790;2023-07-30T17:09:43;94664.31;;;22.31;55.09
68889;BME280;55930;47.412;8.790;2023-07-30T17:13:04;94671.13;;;22.24;55.17
68889;BME280;55930;47.412;8.790;2023-07-30T17:16:24;94678.06;;;22.12;56.09
68889;BME280;55930;47.412;8.790;2023-07-30T17:19:44;94672.16;;;21.93;61.42
68889;BME280;55930;47.412;8.790;2023-07-30T17:23:05;94676.22;;;21.58;57.38
68889;BME280;55930;47.412;8.790;2023-07-30T17:26:25;94677.25;;;21.34;57.96
68889;BME280;55930;47.412;8.790;2023-07-30T17:29:45;94679.09;;;21.18;64.11
68889;BME280;55930;47.412;8.790;2023-07-30T17:33:06;94683.66;;;21.10;61.45
68889;BME280;55930;47.412;8.790;2023-07-30T17:36:26;94678.84;;;20.95;62.42
68889;BME280;55930;47.412;8.790;2023-07-30T17:39:46;94688.09;;;20.87;63.51